sensor_id;sensor_type;location;lat;lon;timestamp;temperature;humidity
4874;DHT22;2451;49.970;9.068;2023-04-24T00:01:54;12.20;99.90
4874;DHT22;2451;49.970;9.068;2023-04-24T00:04:20;12.10;99.90
4874;DHT22;2451;49.970;9.068;2023-04-24T00:06:45;12.10;99.90
4874;DHT22;2451;49.970;9.068;2023-04-24T00:09:14;12.10;99.90
4874;DHT22;2451;49.970;9.068;2023-04-24T00:11:40;12.10;99.90
4874;DHT22;2451;49.970;9.068;2023-04-24T00:14:06;12.10;99.90
4874;DHT22;2451;49.970;9.068;2023-04-24T00:16:32;12.10;99.90
4874;DHT22;2451;49.970;9.068;2023-04-24T00:18:57;12.10;99.90
4874;DHT22;2451;49.970;9.068;2023-04-24T00:21:23;12.10;99.90
4874;DHT22;2451;49.970;9.068;2023-04-24T00:23:51;12.10;99.90
4874;DHT22;2451;49.970;9.068;2023-04-24T00:26:16;12.10;99.90
4874;DHT22;2451;49.970;9.068;2023-04-24T00:28:42;12.10;99.90
4874;DHT22;2451;49.970;9.068;2023-04-24T00:31:07;12.00;99.90
4874;DHT22;2451;49.970;9.068;2023-04-24T00:33:33;12.00;99.90
4874;DHT22;2451;49.970;9.068;2023-04-24T00:35:59;12.00;99.90
4874;DHT22;2451;49.970;9.068;2023-04-24T00:38:24;12.00;99.90
4874;DHT22;2451;49.970;9.068;2023-04-24T00:40:50;12.00;99.90
4874;DHT22;2451;49.970;9.068;2023-04-24T00:43:16;12.00;99.90
4874;DHT22;2451;49.970;9.068;2023-04-24T00:45:42;11.90;99.90
4874;DHT22;2451;49.970;9.068;2023-04-24T00:48:08;11.90;99.90
4874;DHT22;2451;49.970;9.068;2023-04-24T00:50:36;11.90;99.90
4874;DHT22;2451;49.970;9.068;2023-04-24T00:53:02;11.90;99.90
4874;DHT22;2451;49.970;9.068;2023-04-24T00:55:27;11.90;99.90
4874;DHT22;2451;49.970;9.068;2023-04-24T00:57:53;11.90;99.90
4874;DHT22;2451;49.970;9.068;2023-04-24T01:00:19;12.00;99.90
4874;DHT22;2451;49.970;9.068;2023-04-24T01:02:45;12.00;99.90
4874;DHT22;2451;49.970;9.068;2023-04-24T01:05:15;12.00;99.90
4874;DHT22;2451;49.970;9.068;2023-04-24T01:07:43;12.00;99.90
4874;DHT22;2451;49.970;9.068;2023-04-24T01:10:14;12.00;99.90
4874;DHT22;2451;49.970;9.068;2023-04-24T01:12:40;12.00;99.90
4874;DHT22;2451;49.970;9.068;2023-04-24T01:15:06;12.00;99.90
4874;DHT22;2451;49.970;9.068;2023-04-24T01:17:32;12.00;99.90
4874;DHT22;2451;49.970;9.068;2023-04-24T01:19:59;12.00;99.90
4874;DHT22;2451;49.970;9.068;2023-04-24T01:22:25;12.00;99.90
4874;DHT22;2451;49.970;9.068;2023-04-24T01:24:52;12.00;99.90
4874;DHT22;2451;49.970;9.068;2023-04-24T01:27:19;11.90;99.90
4874;DHT22;2451;49.970;9.068;2023-04-24T01:29:45;11.90;99.90
4874;DHT22;2451;49.970;9.068;2023-04-24T01:32:12;11.90;99.90
4874;DHT22;2451;49.970;9.068;2023-04-24T01:34:40;12.00;99.90
4874;DHT22;2451;49.970;9.068;2023-04-24T01:37:06;11.90;99.90
4874;DHT22;2451;49.970;9.068;2023-04-24T01:39:32;11.90;99.90
4874;DHT22;2451;49.970;9.068;2023-04-24T01:41:59;11.90;99.90
4874;DHT22;2451;49.970;9.068;2023-04-24T01:44:25;11.90;99.90
4874;DHT22;2451;49.970;9.068;2023-04-24T01:46:51;11.90;99.90
4874;DHT22;2451;49.970;9.068;2023-04-24T01:49:19;11.90;99.90
4874;DHT22;2451;49.970;9.068;2023-04-24T01:51:45;12.00;99.90
4874;DHT22;2451;49.970;9.068;2023-04-24T01:54:10;12.00;99.90
4874;DHT22;2451;49.970;9.068;2023-04-24T01:56:36;12.00;99.90
4874;DHT22;2451;49.970;9.068;2023-04-24T01:59:04;12.00;99.90
4874;DHT22;2451;49.970;9.068;2023-04-24T02:01:35;12.00;99.90
4874;DHT22;2451;49.970;9.068;2023-04-24T02:04:01;12.00;99.90
4874;DHT22;2451;49.970;9.068;2023-04-24T02:06:27;11.90;99.90
4874;DHT22;2451;49.970;9.068;2023-04-24T02:08:52;11.90;99.90
4874;DHT22;2451;49.970;9.068;2023-04-24T02:11:18;12.00;99.90
4874;DHT22;2451;49.970;9.068;2023-04-24T02:13:44;12.00;99.90
4874;DHT22;2451;49.970;9.068;2023-04-24T02:16:10;12.00;99.90
4874;DHT22;2451;49.970;9.068;2023-04-24T02:18:35;11.90;99.90
4874;DHT22;2451;49.970;9.068;2023-04-24T02:21:01;12.00;99.90
4874;DHT22;2451;49.970;9.068;2023-04-24T02:23:26;12.00;99.90
4874;DHT22;2451;49.970;9.068;2023-04-24T02:25:52;12.00;99.90
4874;DHT22;2451;49.970;9.068;2023-04-24T02:28:19;11.90;99.90
4874;DHT22;2451;49.970;9.068;2023-04-24T02:30:44;11.90;99.90
4874;DHT22;2451;49.970;9.068;2023-04-24T02:33:11;11.90;99.90
4874;DHT22;2451;49.970;9.068;2023-04-24T02:35:37;11.90;99.90
4874;DHT22;2451;49.970;9.068;2023-04-24T02:38:02;11.90;99.90
4874;DHT22;2451;49.970;9.068;2023-04-24T02:40:28;11.90;99.90
4874;DHT22;2451;49.970;9.068;2023-04-24T02:42:54;11.90;99.90
4874;DHT22;2451;49.970;9.068;2023-04-24T02:45:20;11.90;99.90
4874;DHT22;2451;49.970;9.068;2023-04-24T02:47:45;11.90;99.90
4874;DHT22;2451;49.970;9.068;2023-04-24T02:50:11;11.90;99.90
4874;DHT22;2451;49.970;9.068;2023-04-24T02:52:36;12.00;99.90
4874;DHT22;2451;49.970;9.068;2023-04-24T02:55:02;12.00;99.90
4874;DHT22;2451;49.970;9.068;2023-04-24T02:57:28;12.00;99.90
4874;DHT22;2451;49.970;9.068;2023-04-24T02:59:53;12.10;99.90
4874;DHT22;2451;49.970;9.068;2023-04-24T03:02:19;12.10;99.90
4874;DHT22;2451;49.970;9.068;2023-04-24T03:04:46;12.10;99.90
4874;DHT22;2451;49.970;9.068;2023-04-24T03:07:13;12.10;99.90
4874;DHT22;2451;49.970;9.068;2023-04-24T03:09:40;12.20;99.90
4874;DHT22;2451;49.970;9.068;2023-04-24T03:12:05;12.20;99.90
4874;DHT22;2451;49.970;9.068;2023-04-24T03:14:31;12.10;99.90
4874;DHT22;2451;49.970;9.068;2023-04-24T03:16:57;12.20;99.90
4874;DHT22;2451;49.970;9.068;2023-04-24T03:19:22;12.10;99.90
4874;DHT22;2451;49.970;9.068;2023-04-24T03:21:48;12.20;99.90
4874;DHT22;2451;49.970;9.068;2023-04-24T03:24:14;12.10;99.90
4874;DHT22;2451;49.970;9.068;2023-04-24T03:26:39;12.10;99.90
4874;DHT22;2451;49.970;9.068;2023-04-24T03:29:05;12.20;99.90
4874;DHT22;2451;49.970;9.068;2023-04-24T03:31:30;12.10;99.90
4874;DHT22;2451;49.970;9.068;2023-04-24T03:33:56;12.10;99.90
4874;DHT22;2451;49.970;9.068;2023-04-24T03:36:21;12.10;99.90
4874;DHT22;2451;49.970;9.068;2023-04-24T03:38:47;12.10;99.90
4874;DHT22;2451;49.970;9.068;2023-04-24T03:41:12;12.00;99.90
4874;DHT22;2451;49.970;9.068;2023-04-24T03:43:38;12.00;99.90
4874;DHT22;2451;49.970;9.068;2023-04-24T03:46:04;12.00;99.90
4874;DHT22;2451;49.970;9.068;2023-04-24T03:48:30;11.90;99.90
4874;DHT22;2451;49.970;9.068;2023-04-24T03:50:55;11.90;99.90
4874;DHT22;2451;49.970;9.068;2023-04-24T03:53:21;11.90;99.90
4874;DHT22;2451;49.970;9.068;2023-04-24T03:55:46;11.90;99.90
4874;DHT22;2451;49.970;9.068;2023-04-24T03:58:12;11.80;99.90
4874;DHT22;2451;49.970;9.068;2023-04-24T04:00:39;11.70;99.90
4874;DHT22;2451;49.970;9.068;2023-04-24T04:03:05;11.70;99.90
4874;DHT22;2451;49.970;9.068;2023-04-24T04:05:31;11.60;99.90
4874;DHT22;2451;49.970;9.068;2023-04-24T04:07:56;11.60;99.90
4874;DHT22;2451;49.970;9.068;2023-04-24T04:10:22;11.50;99.90
4874;DHT22;2451;49.970;9.068;2023-04-24T04:12:48;11.40;99.90
4874;DHT22;2451;49.970;9.068;2023-04-24T04:15:13;11.30;99.90
4874;DHT22;2451;49.970;9.068;2023-04-24T04:17:39;11.30;99.90
4874;DHT22;2451;49.970;9.068;2023-04-24T04:20:05;11.20;99.90
4874;DHT22;2451;49.970;9.068;2023-04-24T04:22:36;11.20;99.90
4874;DHT22;2451;49.970;9.068;2023-04-24T04:25:02;11.10;99.90
4874;DHT22;2451;49.970;9.068;2023-04-24T04:27:28;11.10;99.90
4874;DHT22;2451;49.970;9.068;2023-04-24T04:29:58;11.00;99.90
4874;DHT22;2451;49.970;9.068;2023-04-24T04:32:24;11.00;99.90
4874;DHT22;2451;49.970;9.068;2023-04-24T04:34:50;10.90;99.90
4874;DHT22;2451;49.970;9.068;2023-04-24T04:37:18;10.90;99.90
4874;DHT22;2451;49.970;9.068;2023-04-24T04:39:44;10.90;99.90
4874;DHT22;2451;49.970;9.068;2023-04-24T04:42:09;10.80;99.90
4874;DHT22;2451;49.970;9.068;2023-04-24T04:44:35;10.80;99.90
4874;DHT22;2451;49.970;9.068;2023-04-24T04:47:01;10.80;99.90
4874;DHT22;2451;49.970;9.068;2023-04-24T04:49:31;10.70;99.90
4874;DHT22;2451;49.970;9.068;2023-04-24T04:51:56;10.70;99.90
4874;DHT22;2451;49.970;9.068;2023-04-24T04:54:22;10.70;99.90
4874;DHT22;2451;49.970;9.068;2023-04-24T04:56:50;10.70;99.90
4874;DHT22;2451;49.970;9.068;2023-04-24T04:59:15;10.70;99.90
4874;DHT22;2451;49.970;9.068;2023-04-24T05:01:41;10.70;99.90
4874;DHT22;2451;49.970;9.068;2023-04-24T05:04:07;10.70;99.90
4874;DHT22;2451;49.970;9.068;2023-04-24T05:06:32;10.60;99.90
4874;DHT22;2451;49.970;9.068;2023-04-24T05:08:58;10.60;99.90
4874;DHT22;2451;49.970;9.068;2023-04-24T05:11:23;10.60;99.90
4874;DHT22;2451;49.970;9.068;2023-04-24T05:13:49;10.50;99.90
4874;DHT22;2451;49.970;9.068;2023-04-24T05:16:14;10.60;99.90
4874;DHT22;2451;49.970;9.068;2023-04-24T05:18:41;10.60;99.90
4874;DHT22;2451;49.970;9.068;2023-04-24T05:21:06;10.60;99.90
4874;DHT22;2451;49.970;9.068;2023-04-24T05:23:32;10.60;99.90
4874;DHT22;2451;49.970;9.068;2023-04-24T05:25:57;10.60;99.90
4874;DHT22;2451;49.970;9.068;2023-04-24T05:28:23;10.60;99.90
4874;DHT22;2451;49.970;9.068;2023-04-24T05:30:48;10.60;99.90
4874;DHT22;2451;49.970;9.068;2023-04-24T05:33:14;10.70;99.90
4874;DHT22;2451;49.970;9.068;2023-04-24T05:35:42;10.80;99.90
4874;DHT22;2451;49.970;9.068;2023-04-24T05:38:12;10.80;99.90
4874;DHT22;2451;49.970;9.068;2023-04-24T05:40:39;10.90;99.90
4874;DHT22;2451;49.970;9.068;2023-04-24T05:43:04;10.90;99.90
4874;DHT22;2451;49.970;9.068;2023-04-24T05:45:30;10.80;99.90
4874;DHT22;2451;49.970;9.068;2023-04-24T05:47:55;10.90;99.90
4874;DHT22;2451;49.970;9.068;2023-04-24T05:50:21;10.90;99.90
4874;DHT22;2451;49.970;9.068;2023-04-24T05:52:47;10.90;99.90
4874;DHT22;2451;49.970;9.068;2023-04-24T05:55:12;10.90;99.90
4874;DHT22;2451;49.970;9.068;2023-04-24T05:57:38;11.00;99.90
4874;DHT22;2451;49.970;9.068;2023-04-24T06:00:05;11.10;99.90
4874;DHT22;2451;49.970;9.068;2023-04-24T06:02:31;11.10;99.90
4874;DHT22;2451;49.970;9.068;2023-04-24T06:04:58;11.10;99.90
4874;DHT22;2451;49.970;9.068;2023-04-24T06:07:25;11.20;99.90
4874;DHT22;2451;49.970;9.068;2023-04-24T06:09:51;11.30;99.90
4874;DHT22;2451;49.970;9.068;2023-04-24T06:12:17;11.40;99.90
4874;DHT22;2451;49.970;9.068;2023-04-24T06:14:43;11.40;99.90
4874;DHT22;2451;49.970;9.068;2023-04-24T06:17:09;11.50;99.90
4874;DHT22;2451;49.970;9.068;2023-04-24T06:19:34;11.60;99.90
4874;DHT22;2451;49.970;9.068;2023-04-24T06:22:00;11.70;99.90
4874;DHT22;2451;49.970;9.068;2023-04-24T06:24:29;11.70;99.90
4874;DHT22;2451;49.970;9.068;2023-04-24T06:26:54;11.80;99.90
4874;DHT22;2451;49.970;9.068;2023-04-24T06:29:20;12.00;99.90
4874;DHT22;2451;49.970;9.068;2023-04-24T06:31:45;12.10;99.90
4874;DHT22;2451;49.970;9.068;2023-04-24T06:34:11;12.10;99.90
4874;DHT22;2451;49.970;9.068;2023-04-24T06:36:36;12.20;99.90
4874;DHT22;2451;49.970;9.068;2023-04-24T06:39:02;12.30;99.90
4874;DHT22;2451;49.970;9.068;2023-04-24T06:41:28;12.20;99.90
4874;DHT22;2451;49.970;9.068;2023-04-24T06:43:54;12.20;99.90
4874;DHT22;2451;49.970;9.068;2023-04-24T06:46:20;12.00;99.90
4874;DHT22;2451;49.970;9.068;2023-04-24T06:48:49;11.90;99.90
4874;DHT22;2451;49.970;9.068;2023-04-24T06:51:14;11.90;99.90
4874;DHT22;2451;49.970;9.068;2023-04-24T06:53:40;11.80;99.90
4874;DHT22;2451;49.970;9.068;2023-04-24T06:56:06;11.80;99.90
4874;DHT22;2451;49.970;9.068;2023-04-24T06:58:31;11.90;99.90
4874;DHT22;2451;49.970;9.068;2023-04-24T07:00:57;12.00;99.90
4874;DHT22;2451;49.970;9.068;2023-04-24T07:03:22;12.00;99.90
4874;DHT22;2451;49.970;9.068;2023-04-24T07:05:48;12.10;99.90
4874;DHT22;2451;49.970;9.068;2023-04-24T07:08:14;12.10;99.90
4874;DHT22;2451;49.970;9.068;2023-04-24T07:10:42;12.20;99.90
4874;DHT22;2451;49.970;9.068;2023-04-24T07:13:08;12.20;99.90
4874;DHT22;2451;49.970;9.068;2023-04-24T07:15:33;12.20;99.90
4874;DHT22;2451;49.970;9.068;2023-04-24T07:17:59;12.20;99.90
4874;DHT22;2451;49.970;9.068;2023-04-24T07:20:25;12.30;99.90
4874;DHT22;2451;49.970;9.068;2023-04-24T07:22:51;12.40;99.90
4874;DHT22;2451;49.970;9.068;2023-04-24T07:25:17;12.50;99.90
4874;DHT22;2451;49.970;9.068;2023-04-24T07:27:42;12.80;99.90
4874;DHT22;2451;49.970;9.068;2023-04-24T07:30:08;13.00;99.90
4874;DHT22;2451;49.970;9.068;2023-04-24T07:32:35;12.90;99.90
4874;DHT22;2451;49.970;9.068;2023-04-24T07:35:00;13.00;99.90
4874;DHT22;2451;49.970;9.068;2023-04-24T07:37:26;13.00;99.90
4874;DHT22;2451;49.970;9.068;2023-04-24T07:39:51;13.10;99.90
4874;DHT22;2451;49.970;9.068;2023-04-24T07:42:17;13.30;99.90
4874;DHT22;2451;49.970;9.068;2023-04-24T07:44:42;13.40;99.90
4874;DHT22;2451;49.970;9.068;2023-04-24T07:47:08;13.50;99.90
4874;DHT22;2451;49.970;9.068;2023-04-24T07:49:34;13.60;99.90
4874;DHT22;2451;49.970;9.068;2023-04-24T07:52:00;13.80;99.90
4874;DHT22;2451;49.970;9.068;2023-04-24T07:54:27;13.70;99.90
4874;DHT22;2451;49.970;9.068;2023-04-24T07:56:53;13.40;99.90
4874;DHT22;2451;49.970;9.068;2023-04-24T07:59:19;13.20;99.90
4874;DHT22;2451;49.970;9.068;2023-04-24T08:01:45;13.00;99.90
4874;DHT22;2451;49.970;9.068;2023-04-24T08:04:10;13.20;99.90
4874;DHT22;2451;49.970;9.068;2023-04-24T08:06:36;13.50;99.90
4874;DHT22;2451;49.970;9.068;2023-04-24T08:09:01;13.40;99.90
4874;DHT22;2451;49.970;9.068;2023-04-24T08:11:27;13.30;99.90
4874;DHT22;2451;49.970;9.068;2023-04-24T08:13:53;13.50;99.90
4874;DHT22;2451;49.970;9.068;2023-04-24T08:16:20;13.60;99.90
4874;DHT22;2451;49.970;9.068;2023-04-24T08:18:45;13.50;99.90
4874;DHT22;2451;49.970;9.068;2023-04-24T08:21:11;13.70;99.90
4874;DHT22;2451;49.970;9.068;2023-04-24T08:23:38;13.90;99.90
4874;DHT22;2451;49.970;9.068;2023-04-24T08:26:03;13.80;99.90
4874;DHT22;2451;49.970;9.068;2023-04-24T08:28:29;13.70;99.90
4874;DHT22;2451;49.970;9.068;2023-04-24T08:30:55;13.90;99.90
4874;DHT22;2451;49.970;9.068;2023-04-24T08:33:24;14.10;99.90
4874;DHT22;2451;49.970;9.068;2023-04-24T08:35:50;14.30;99.90
4874;DHT22;2451;49.970;9.068;2023-04-24T08:38:16;14.20;99.90
4874;DHT22;2451;49.970;9.068;2023-04-24T08:40:42;14.00;99.90
4874;DHT22;2451;49.970;9.068;2023-04-24T08:43:08;13.80;99.90
4874;DHT22;2451;49.970;9.068;2023-04-24T08:45:35;13.50;99.90
4874;DHT22;2451;49.970;9.068;2023-04-24T08:48:02;13.30;99.90
4874;DHT22;2451;49.970;9.068;2023-04-24T08:50:28;13.20;99.90
4874;DHT22;2451;49.970;9.068;2023-04-24T08:52:54;13.10;99.90
4874;DHT22;2451;49.970;9.068;2023-04-24T08:55:20;12.90;99.90
4874;DHT22;2451;49.970;9.068;2023-04-24T08:57:51;12.80;99.90
4874;DHT22;2451;49.970;9.068;2023-04-24T09:00:19;12.70;99.90
4874;DHT22;2451;49.970;9.068;2023-04-24T09:02:47;12.70;99.90
4874;DHT22;2451;49.970;9.068;2023-04-24T09:05:14;13.20;99.90
4874;DHT22;2451;49.970;9.068;2023-04-24T09:07:45;13.30;99.90
4874;DHT22;2451;49.970;9.068;2023-04-24T09:10:11;13.00;99.90
4874;DHT22;2451;49.970;9.068;2023-04-24T09:12:37;12.90;99.90
4874;DHT22;2451;49.970;9.068;2023-04-24T09:15:03;12.80;99.90
4874;DHT22;2451;49.970;9.068;2023-04-24T09:17:30;12.80;99.90
4874;DHT22;2451;49.970;9.068;2023-04-24T09:19:56;12.60;99.90
4874;DHT22;2451;49.970;9.068;2023-04-24T09:22:22;12.70;99.90
4874;DHT22;2451;49.970;9.068;2023-04-24T09:24:47;12.60;99.90
4874;DHT22;2451;49.970;9.068;2023-04-24T09:27:13;12.50;99.90
4874;DHT22;2451;49.970;9.068;2023-04-24T09:29:53;12.40;99.90
4874;DHT22;2451;49.970;9.068;2023-04-24T09:32:22;12.30;99.90
4874;DHT22;2451;49.970;9.068;2023-04-24T09:34:48;12.20;99.90
4874;DHT22;2451;49.970;9.068;2023-04-24T09:37:29;12.10;99.90
4874;DHT22;2451;49.970;9.068;2023-04-24T09:42:43;12.00;99.90
4874;DHT22;2451;49.970;9.068;2023-04-24T09:45:10;12.10;99.90
4874;DHT22;2451;49.970;9.068;2023-04-24T09:47:38;12.20;99.90
4874;DHT22;2451;49.970;9.068;2023-04-24T09:50:15;12.30;99.90
4874;DHT22;2451;49.970;9.068;2023-04-24T09:52:46;12.80;99.90
4874;DHT22;2451;49.970;9.068;2023-04-24T09:55:15;13.10;99.90
4874;DHT22;2451;49.970;9.068;2023-04-24T09:58:02;13.50;99.90
4874;DHT22;2451;49.970;9.068;2023-04-24T10:00:32;13.60;99.90
4874;DHT22;2451;49.970;9.068;2023-04-24T10:03:04;13.50;99.90
4874;DHT22;2451;49.970;9.068;2023-04-24T10:05:31;13.70;99.90
4874;DHT22;2451;49.970;9.068;2023-04-24T10:08:04;13.70;99.90
4874;DHT22;2451;49.970;9.068;2023-04-24T10:10:31;13.30;99.90
4874;DHT22;2451;49.970;9.068;2023-04-24T10:12:57;12.90;99.90
4874;DHT22;2451;49.970;9.068;2023-04-24T10:15:22;12.60;99.90
4874;DHT22;2451;49.970;9.068;2023-04-24T10:17:50;12.50;99.90
4874;DHT22;2451;49.970;9.068;2023-04-24T10:20:23;12.50;99.90
4874;DHT22;2451;49.970;9.068;2023-04-24T10:22:51;12.60;99.90
4874;DHT22;2451;49.970;9.068;2023-04-24T10:25:22;12.70;99.90
4874;DHT22;2451;49.970;9.068;2023-04-24T10:27:49;12.60;99.90
4874;DHT22;2451;49.970;9.068;2023-04-24T10:30:16;12.40;99.90
4874;DHT22;2451;49.970;9.068;2023-04-24T10:32:42;12.50;99.90
4874;DHT22;2451;49.970;9.068;2023-04-24T10:35:09;12.50;99.90
4874;DHT22;2451;49.970;9.068;2023-04-24T10:40:08;12.50;99.90
4874;DHT22;2451;49.970;9.068;2023-04-24T10:42:35;12.50;99.90
4874;DHT22;2451;49.970;9.068;2023-04-24T10:45:06;12.60;99.90
4874;DHT22;2451;49.970;9.068;2023-04-24T10:47:40;12.70;99.90
4874;DHT22;2451;49.970;9.068;2023-04-24T10:50:12;12.70;99.90
4874;DHT22;2451;49.970;9.068;2023-04-24T10:52:45;12.70;99.90
4874;DHT22;2451;49.970;9.068;2023-04-24T10:55:13;12.80;99.90
4874;DHT22;2451;49.970;9.068;2023-04-24T10:57:39;12.80;99.90
4874;DHT22;2451;49.970;9.068;2023-04-24T11:00:19;12.70;99.90
4874;DHT22;2451;49.970;9.068;2023-04-24T11:02:46;12.70;99.90
4874;DHT22;2451;49.970;9.068;2023-04-24T11:05:19;12.50;99.90
4874;DHT22;2451;49.970;9.068;2023-04-24T11:08:10;12.50;99.90
4874;DHT22;2451;49.970;9.068;2023-04-24T11:10:41;12.50;99.90
4874;DHT22;2451;49.970;9.068;2023-04-24T11:13:08;12.50;99.90
4874;DHT22;2451;49.970;9.068;2023-04-24T11:15:34;12.60;99.90
4874;DHT22;2451;49.970;9.068;2023-04-24T11:18:00;12.70;99.90
4874;DHT22;2451;49.970;9.068;2023-04-24T11:20:25;12.70;99.90
4874;DHT22;2451;49.970;9.068;2023-04-24T11:22:53;12.70;99.90
4874;DHT22;2451;49.970;9.068;2023-04-24T11:25:21;12.70;99.90
4874;DHT22;2451;49.970;9.068;2023-04-24T11:27:47;12.70;99.90
4874;DHT22;2451;49.970;9.068;2023-04-24T11:30:18;12.70;99.90
4874;DHT22;2451;49.970;9.068;2023-04-24T11:32:48;12.40;99.90
4874;DHT22;2451;49.970;9.068;2023-04-24T11:35:20;12.10;99.90
4874;DHT22;2451;49.970;9.068;2023-04-24T11:37:49;12.10;99.90
4874;DHT22;2451;49.970;9.068;2023-04-24T11:40:16;12.10;99.90
4874;DHT22;2451;49.970;9.068;2023-04-24T11:42:43;12.10;99.90
4874;DHT22;2451;49.970;9.068;2023-04-24T11:45:26;11.70;99.90
4874;DHT22;2451;49.970;9.068;2023-04-24T11:47:52;11.40;99.90
4874;DHT22;2451;49.970;9.068;2023-04-24T11:50:21;11.10;99.90
4874;DHT22;2451;49.970;9.068;2023-04-24T11:52:48;11.00;99.90
4874;DHT22;2451;49.970;9.068;2023-04-24T11:57:44;10.60;99.90
4874;DHT22;2451;49.970;9.068;2023-04-24T12:00:15;10.50;99.90
4874;DHT22;2451;49.970;9.068;2023-04-24T12:02:41;10.50;99.90
4874;DHT22;2451;49.970;9.068;2023-04-24T12:05:06;10.60;99.90
4874;DHT22;2451;49.970;9.068;2023-04-24T12:07:40;10.40;99.90
4874;DHT22;2451;49.970;9.068;2023-04-24T12:10:08;10.30;99.90
4874;DHT22;2451;49.970;9.068;2023-04-24T12:12:34;10.30;99.90
4874;DHT22;2451;49.970;9.068;2023-04-24T12:15:01;10.40;99.90
4874;DHT22;2451;49.970;9.068;2023-04-24T12:17:32;10.40;99.90
4874;DHT22;2451;49.970;9.068;2023-04-24T12:20:02;10.50;99.90
4874;DHT22;2451;49.970;9.068;2023-04-24T12:25:12;10.50;99.90
4874;DHT22;2451;49.970;9.068;2023-04-24T12:27:37;10.50;99.90
4874;DHT22;2451;49.970;9.068;2023-04-24T12:30:05;10.50;99.90
4874;DHT22;2451;49.970;9.068;2023-04-24T12:32:31;10.40;99.90
4874;DHT22;2451;49.970;9.068;2023-04-24T12:34:57;10.40;99.90
4874;DHT22;2451;49.970;9.068;2023-04-24T12:37:25;10.30;99.90
4874;DHT22;2451;49.970;9.068;2023-04-24T12:40:10;10.30;99.90
4874;DHT22;2451;49.970;9.068;2023-04-24T12:42:43;10.40;99.90
4874;DHT22;2451;49.970;9.068;2023-04-24T12:45:09;10.50;99.90
4874;DHT22;2451;49.970;9.068;2023-04-24T12:47:35;10.60;99.90
4874;DHT22;2451;49.970;9.068;2023-04-24T12:50:02;10.90;99.90
4874;DHT22;2451;49.970;9.068;2023-04-24T12:52:29;11.30;99.90
4874;DHT22;2451;49.970;9.068;2023-04-24T12:54:57;11.60;99.90
4874;DHT22;2451;49.970;9.068;2023-04-24T12:57:24;12.00;99.90
4874;DHT22;2451;49.970;9.068;2023-04-24T12:59:50;12.30;99.90
4874;DHT22;2451;49.970;9.068;2023-04-24T13:02:16;12.70;99.90
4874;DHT22;2451;49.970;9.068;2023-04-24T13:04:44;13.20;99.90
4874;DHT22;2451;49.970;9.068;2023-04-24T13:07:11;13.60;99.90
4874;DHT22;2451;49.970;9.068;2023-04-24T13:09:37;13.70;99.90
4874;DHT22;2451;49.970;9.068;2023-04-24T13:12:03;13.30;99.90
4874;DHT22;2451;49.970;9.068;2023-04-24T13:14:31;12.90;99.90
4874;DHT22;2451;49.970;9.068;2023-04-24T13:16:56;12.70;99.90
4874;DHT22;2451;49.970;9.068;2023-04-24T13:19:24;12.30;99.90
4874;DHT22;2451;49.970;9.068;2023-04-24T13:21:50;11.80;99.90
4874;DHT22;2451;49.970;9.068;2023-04-24T13:24:16;11.50;99.90
4874;DHT22;2451;49.970;9.068;2023-04-24T13:26:42;11.20;99.90
4874;DHT22;2451;49.970;9.068;2023-04-24T13:29:08;10.90;99.90
4874;DHT22;2451;49.970;9.068;2023-04-24T13:31:33;10.70;99.90
4874;DHT22;2451;49.970;9.068;2023-04-24T13:33:59;10.50;99.90
4874;DHT22;2451;49.970;9.068;2023-04-24T13:36:25;10.50;99.90
4874;DHT22;2451;49.970;9.068;2023-04-24T13:38:50;10.40;99.90
4874;DHT22;2451;49.970;9.068;2023-04-24T13:41:16;10.40;99.90
4874;DHT22;2451;49.970;9.068;2023-04-24T13:43:41;10.40;99.90
4874;DHT22;2451;49.970;9.068;2023-04-24T13:46:08;10.40;99.90
4874;DHT22;2451;49.970;9.068;2023-04-24T13:48:34;10.50;99.90
4874;DHT22;2451;49.970;9.068;2023-04-24T13:50:59;10.70;99.90
4874;DHT22;2451;49.970;9.068;2023-04-24T13:53:25;10.90;99.90
4874;DHT22;2451;49.970;9.068;2023-04-24T13:55:50;11.20;99.90
4874;DHT22;2451;49.970;9.068;2023-04-24T13:58:16;11.20;99.90
4874;DHT22;2451;49.970;9.068;2023-04-24T14:00:41;11.40;99.90
4874;DHT22;2451;49.970;9.068;2023-04-24T14:03:07;11.60;99.90
4874;DHT22;2451;49.970;9.068;2023-04-24T14:05:32;11.80;99.90
4874;DHT22;2451;49.970;9.068;2023-04-24T14:07:58;12.20;99.90
4874;DHT22;2451;49.970;9.068;2023-04-24T14:10:24;12.50;99.90
4874;DHT22;2451;49.970;9.068;2023-04-24T14:12:50;12.60;99.90
4874;DHT22;2451;49.970;9.068;2023-04-24T14:15:15;12.60;99.90
4874;DHT22;2451;49.970;9.068;2023-04-24T14:17:42;12.60;99.90
4874;DHT22;2451;49.970;9.068;2023-04-24T14:20:08;12.50;99.90
4874;DHT22;2451;49.970;9.068;2023-04-24T14:22:34;12.50;99.90
4874;DHT22;2451;49.970;9.068;2023-04-24T14:24:59;12.40;99.90
4874;DHT22;2451;49.970;9.068;2023-04-24T14:27:26;12.20;99.90
4874;DHT22;2451;49.970;9.068;2023-04-24T14:29:52;12.10;99.90
4874;DHT22;2451;49.970;9.068;2023-04-24T14:32:17;12.00;99.90
4874;DHT22;2451;49.970;9.068;2023-04-24T14:34:43;11.80;99.90
4874;DHT22;2451;49.970;9.068;2023-04-24T14:37:08;11.70;99.90
4874;DHT22;2451;49.970;9.068;2023-04-24T14:39:34;11.60;99.90
4874;DHT22;2451;49.970;9.068;2023-04-24T14:42:00;11.60;99.90
4874;DHT22;2451;49.970;9.068;2023-04-24T14:44:26;11.60;99.90
4874;DHT22;2451;49.970;9.068;2023-04-24T14:46:52;11.80;99.90
4874;DHT22;2451;49.970;9.068;2023-04-24T14:49:18;12.00;99.90
4874;DHT22;2451;49.970;9.068;2023-04-24T14:51:43;12.10;99.90
4874;DHT22;2451;49.970;9.068;2023-04-24T14:54:09;12.10;99.90
4874;DHT22;2451;49.970;9.068;2023-04-24T14:56:35;12.10;99.90
4874;DHT22;2451;49.970;9.068;2023-04-24T14:59:01;12.10;99.90
4874;DHT22;2451;49.970;9.068;2023-04-24T15:01:26;12.20;99.90
4874;DHT22;2451;49.970;9.068;2023-04-24T15:03:52;12.30;99.90
4874;DHT22;2451;49.970;9.068;2023-04-24T15:06:17;12.40;99.90
4874;DHT22;2451;49.970;9.068;2023-04-24T15:08:43;12.40;99.90
4874;DHT22;2451;49.970;9.068;2023-04-24T15:11:12;12.50;99.90
4874;DHT22;2451;49.970;9.068;2023-04-24T15:13:37;12.50;99.90
4874;DHT22;2451;49.970;9.068;2023-04-24T15:16:03;12.50;99.90
4874;DHT22;2451;49.970;9.068;2023-04-24T15:18:29;12.50;99.90
4874;DHT22;2451;49.970;9.068;2023-04-24T15:20:55;12.60;99.90
4874;DHT22;2451;49.970;9.068;2023-04-24T15:23:21;12.70;99.90
4874;DHT22;2451;49.970;9.068;2023-04-24T15:25:46;12.70;99.90
4874;DHT22;2451;49.970;9.068;2023-04-24T15:28:12;12.70;99.90
4874;DHT22;2451;49.970;9.068;2023-04-24T15:30:38;12.80;99.90
4874;DHT22;2451;49.970;9.068;2023-04-24T15:33:03;12.80;99.90
4874;DHT22;2451;49.970;9.068;2023-04-24T15:35:29;12.70;99.90
4874;DHT22;2451;49.970;9.068;2023-04-24T15:37:54;12.80;99.90
4874;DHT22;2451;49.970;9.068;2023-04-24T15:40:20;12.80;99.90
4874;DHT22;2451;49.970;9.068;2023-04-24T15:42:46;12.90;99.90
4874;DHT22;2451;49.970;9.068;2023-04-24T15:45:11;12.90;99.90
4874;DHT22;2451;49.970;9.068;2023-04-24T15:47:38;12.90;99.90
4874;DHT22;2451;49.970;9.068;2023-04-24T15:50:04;13.00;99.90
4874;DHT22;2451;49.970;9.068;2023-04-24T15:52:30;13.00;99.90
4874;DHT22;2451;49.970;9.068;2023-04-24T15:54:56;13.10;99.90
4874;DHT22;2451;49.970;9.068;2023-04-24T15:57:21;13.20;99.90
4874;DHT22;2451;49.970;9.068;2023-04-24T15:59:47;13.30;99.90
4874;DHT22;2451;49.970;9.068;2023-04-24T16:02:13;13.30;99.90
4874;DHT22;2451;49.970;9.068;2023-04-24T16:04:46;13.40;99.90
4874;DHT22;2451;49.970;9.068;2023-04-24T16:07:15;13.60;99.90
4874;DHT22;2451;49.970;9.068;2023-04-24T16:09:43;13.60;99.90